createdAt,value
2019-04-04T00:01:35.618Z,90.77
2019-04-04T00:04:05.269Z,90.97
2019-04-04T00:06:34.249Z,91.16
2019-04-04T00:09:05.465Z,90.45
2019-04-04T00:11:36.930Z,90.79
2019-04-04T00:14:07.178Z,91.07
2019-04-04T00:16:36.626Z,91.14
2019-04-04T00:19:05.683Z,90.82
2019-04-04T00:21:34.652Z,90.54
2019-04-04T00:24:04.483Z,90.16
2019-04-04T00:26:33.753Z,89.60
2019-04-04T00:29:03.192Z,89.17
2019-04-04T00:31:32.682Z,89.01
2019-04-04T00:34:02.593Z,89.41
2019-04-04T00:36:33.860Z,89.82
2019-04-04T00:39:02.650Z,89.91
2019-04-04T00:41:31.404Z,89.96
2019-04-04T00:44:00.464Z,89.95
2019-04-04T00:46:30.886Z,90.24
2019-04-04T00:49:00.703Z,90.24
2019-04-04T00:51:29.441Z,89.83
2019-04-04T00:53:58.139Z,89.12
2019-04-04T00:56:26.830Z,87.95
2019-04-04T00:58:55.917Z,88.01
2019-04-04T01:01:26.949Z,88.09
2019-04-04T01:03:56.105Z,88.49
2019-04-04T01:06:24.792Z,87.59
2019-04-04T01:08:53.464Z,88.88
2019-04-04T01:11:22.482Z,88.76
2019-04-04T01:13:51.180Z,89.27
2019-04-04T01:16:19.850Z,89.86
2019-04-04T01:18:49.164Z,89.49
2019-04-04T01:21:18.196Z,89.75
2019-04-04T01:23:46.881Z,90.13
2019-04-04T01:26:15.555Z,90.70
2019-04-04T01:28:44.798Z,91.31
2019-04-04T01:31:15.006Z,91.59
2019-04-04T01:33:44.195Z,91.89
2019-04-04T01:36:12.849Z,92.14
2019-04-04T01:38:41.525Z,92.52
2019-04-04T01:41:10.176Z,92.45
2019-04-04T01:43:40.079Z,92.42
2019-04-04T01:46:09.774Z,92.52
2019-04-04T01:48:38.433Z,92.83
2019-04-04T01:51:07.971Z,92.81
2019-04-04T01:53:36.773Z,92.87
2019-04-04T01:56:06.760Z,92.84
2019-04-04T01:58:36.390Z,93.19
2019-04-04T02:01:05.216Z,93.79
2019-04-04T02:03:34.181Z,93.94
2019-04-04T02:06:02.856Z,93.79
2019-04-04T02:08:32.089Z,93.65
2019-04-04T02:11:00.846Z,93.52
2019-04-04T02:13:29.520Z,93.73
2019-04-04T02:15:58.196Z,93.98
2019-04-04T02:18:26.854Z,94.21
2019-04-04T02:20:57.690Z,94.55
2019-04-04T02:23:25.932Z,94.86
2019-04-04T02:25:54.640Z,94.82
2019-04-04T02:28:23.321Z,94.71
2019-04-04T02:30:52.580Z,94.70
2019-04-04T02:33:21.245Z,94.60
2019-04-04T02:35:49.909Z,94.50
2019-04-04T02:38:18.583Z,94.43
2019-04-04T02:40:47.259Z,94.52
2019-04-04T02:43:15.892Z,94.77
2019-04-04T02:45:44.615Z,94.89
2019-04-04T02:48:13.255Z,94.74
2019-04-04T02:50:41.918Z,94.83
2019-04-04T02:53:10.593Z,94.75
2019-04-04T02:55:39.280Z,94.63
2019-04-04T02:58:07.944Z,94.58
2019-04-04T03:00:36.662Z,94.58
2019-04-04T03:03:08.356Z,94.57
2019-04-04T03:05:35.975Z,94.65
2019-04-04T03:08:04.808Z,94.61
2019-04-04T03:10:33.885Z,94.58
2019-04-04T03:13:02.624Z,94.67
2019-04-04T03:15:31.300Z,94.75
2019-04-04T03:18:04.078Z,94.76
2019-04-04T03:20:30.519Z,94.72
2019-04-04T03:23:00.485Z,94.76
2019-04-04T03:25:29.594Z,94.79
2019-04-04T03:27:59.334Z,94.77
2019-04-04T03:30:28.206Z,94.77
2019-04-04T03:32:56.958Z,94.64
2019-04-04T03:35:28.246Z,94.72
2019-04-04T03:37:56.324Z,94.77
2019-04-04T03:40:25.923Z,94.74
2019-04-04T03:42:54.703Z,94.79
2019-04-04T03:45:26.060Z,94.88
2019-04-04T03:47:53.769Z,94.96
2019-04-04T03:50:22.420Z,95.15
2019-04-04T03:52:51.102Z,95.24
2019-04-04T03:55:19.781Z,95.23
2019-04-04T03:57:48.446Z,95.19
2019-04-04T04:00:27.341Z,95.08
2019-04-04T04:02:56.463Z,94.89
2019-04-04T04:05:26.672Z,95.14
2019-04-04T04:07:55.498Z,95.13
2019-04-04T04:10:24.227Z,94.88
2019-04-04T04:12:52.957Z,94.90
2019-04-04T04:15:21.652Z,95.01
2019-04-04T04:17:50.382Z,94.93
2019-04-04T04:20:19.042Z,94.75
2019-04-04T04:22:50.308Z,94.62
2019-04-04T04:25:18.129Z,94.61
2019-04-04T04:27:48.409Z,94.89
2019-04-04T04:30:17.548Z,94.91
2019-04-04T04:32:46.190Z,94.95
2019-04-04T04:35:14.853Z,94.91
2019-04-04T04:37:43.520Z,94.77
2019-04-04T04:40:14.914Z,94.76
2019-04-04T04:42:42.679Z,94.89
2019-04-04T04:45:12.469Z,94.91
2019-04-04T04:47:41.359Z,94.78
2019-04-04T04:50:10.162Z,94.64
2019-04-04T04:52:38.852Z,94.67
2019-04-04T04:55:07.588Z,94.40
2019-04-04T04:57:37.249Z,94.38
2019-04-04T05:00:06.989Z,94.42
2019-04-04T05:02:35.667Z,94.43
2019-04-04T05:05:04.527Z,94.61
2019-04-04T05:07:33.181Z,94.63
2019-04-04T05:10:01.855Z,94.65
2019-04-04T05:12:30.504Z,94.48
2019-04-04T05:15:01.231Z,94.58
2019-04-04T05:17:29.584Z,94.53
2019-04-04T05:19:58.255Z,94.66
2019-04-04T05:22:26.897Z,94.63
2019-04-04T05:25:07.783Z,94.51
2019-04-04T05:27:25.986Z,94.45
2019-04-04T05:29:54.698Z,94.12
2019-04-04T05:32:23.381Z,94.47
2019-04-04T05:34:52.065Z,94.52
2019-04-04T05:37:20.699Z,94.54
2019-04-04T05:39:51.461Z,94.59
2019-04-04T05:42:19.756Z,94.63
2019-04-04T05:44:48.431Z,94.04
2019-04-04T05:47:17.082Z,94.17
2019-04-04T05:49:45.758Z,94.27
2019-04-04T05:52:14.416Z,93.84
2019-04-04T05:54:43.103Z,93.98
2019-04-04T05:57:11.770Z,93.62
2019-04-04T05:59:42.288Z,93.84
2019-04-04T06:02:11.571Z,93.97
2019-04-04T06:04:40.794Z,93.99
2019-04-04T06:07:09.544Z,93.57
2019-04-04T06:09:38.278Z,93.46
2019-04-04T06:12:07.113Z,93.46
2019-04-04T06:14:35.796Z,93.18
2019-04-04T06:17:05.102Z,93.23
2019-04-04T06:19:35.036Z,93.50
2019-04-04T06:22:03.696Z,93.58
2019-04-04T06:24:32.347Z,93.14
2019-04-04T06:27:01.069Z,92.94
2019-04-04T06:29:29.763Z,93.17
2019-04-04T06:32:00.292Z,93.52
2019-04-04T06:34:28.829Z,93.31
2019-04-04T06:36:57.495Z,93.33
2019-04-04T06:39:26.188Z,93.18
2019-04-04T06:41:54.838Z,93.29
2019-04-04T06:44:23.501Z,93.03
2019-04-04T06:46:53.605Z,92.67
2019-04-04T06:49:22.828Z,92.98
2019-04-04T06:51:51.481Z,92.04
2019-04-04T06:54:20.164Z,92.18
2019-04-04T06:56:48.844Z,91.93
2019-04-04T06:59:17.524Z,90.87
2019-04-04T07:01:46.177Z,89.95
2019-04-04T07:04:17.170Z,90.48
2019-04-04T07:06:45.269Z,89.81
2019-04-04T07:09:13.977Z,89.50
2019-04-04T07:11:42.658Z,89.65
2019-04-04T07:14:11.336Z,88.76
2019-04-04T07:16:40.019Z,88.38
2019-04-04T07:19:08.688Z,87.51
2019-04-04T07:21:37.339Z,88.19
2019-04-04T07:24:06.071Z,88.50
2019-04-04T07:26:34.776Z,86.81
2019-04-04T07:29:03.568Z,86.08
2019-04-04T07:31:34.049Z,86.86
2019-04-04T07:34:02.632Z,85.96
2019-04-04T07:36:31.310Z,85.76
2019-04-04T07:39:00.298Z,86.51
2019-04-04T07:41:29.764Z,86.74
2019-04-04T07:43:58.719Z,87.03
2019-04-04T07:46:27.463Z,87.72
2019-04-04T07:48:56.162Z,87.23
2019-04-04T07:51:24.809Z,87.13
2019-04-04T07:53:53.512Z,86.64
2019-04-04T07:56:22.170Z,85.97
2019-04-04T07:58:50.829Z,84.78
2019-04-04T08:01:19.526Z,84.60
2019-04-04T08:03:48.196Z,83.41
2019-04-04T08:06:16.850Z,82.01
2019-04-04T08:08:45.539Z,82.59
2019-04-04T08:11:14.284Z,83.79
2019-04-04T08:13:42.948Z,84.51
2019-04-04T08:16:11.708Z,85.52
2019-04-04T08:18:40.368Z,85.40
2019-04-04T08:21:09.080Z,84.59
2019-04-04T08:23:37.749Z,84.11
2019-04-04T08:26:06.506Z,84.38
2019-04-04T08:28:35.202Z,84.62
2019-04-04T08:31:03.886Z,84.11
2019-04-04T08:33:32.550Z,82.44
2019-04-04T08:36:06.236Z,83.03
2019-04-04T08:38:31.646Z,81.65
2019-04-04T08:41:00.302Z,81.06
2019-04-04T08:43:28.991Z,80.59
2019-04-04T08:45:57.663Z,79.18
2019-04-04T08:48:26.350Z,79.41
2019-04-04T08:50:55.020Z,80.18
2019-04-04T08:53:23.700Z,79.57
2019-04-04T08:55:52.394Z,79.50
2019-04-04T08:58:21.055Z,78.73
2019-04-04T09:00:49.754Z,79.92
2019-04-04T09:03:18.417Z,79.76
2019-04-04T09:05:47.074Z,79.94
2019-04-04T09:08:15.769Z,78.59
2019-04-04T09:10:44.441Z,76.84
2019-04-04T09:13:13.108Z,76.58
2019-04-04T09:15:41.783Z,75.60
2019-04-04T09:18:10.460Z,75.78
2019-04-04T09:20:39.163Z,75.66
2019-04-04T09:23:08.240Z,76.07
2019-04-04T09:25:37.069Z,74.79
2019-04-04T09:28:05.804Z,73.76
2019-04-04T09:30:34.524Z,73.59
2019-04-04T09:33:03.206Z,73.80
2019-04-04T09:35:31.879Z,73.63
2019-04-04T09:38:00.553Z,72.13
2019-04-04T09:40:29.248Z,73.50
2019-04-04T09:42:57.916Z,72.12
2019-04-04T09:45:26.613Z,70.54
2019-04-04T09:47:55.277Z,70.43
2019-04-04T09:50:24.132Z,71.59
2019-04-04T09:52:53.094Z,70.32
2019-04-04T09:55:21.855Z,69.70
2019-04-04T09:57:50.545Z,69.03
2019-04-04T10:00:21.040Z,70.43
2019-04-04T10:02:49.982Z,71.23
2019-04-04T10:05:18.999Z,69.35
2019-04-04T10:07:47.675Z,70.52
2019-04-04T10:10:17.095Z,70.07
2019-04-04T10:12:45.857Z,69.72
2019-04-04T10:15:16.288Z,69.35
2019-04-04T10:17:45.416Z,68.50
2019-04-04T10:20:14.434Z,69.54
2019-04-04T10:22:43.107Z,71.85
2019-04-04T10:25:12.057Z,72.37
2019-04-04T10:27:40.710Z,72.36
2019-04-04T10:30:10.251Z,71.28
2019-04-04T10:32:39.261Z,71.98
2019-04-04T10:35:08.353Z,71.45
2019-04-04T10:37:37.098Z,69.19
2019-04-04T10:40:06.541Z,68.92
2019-04-04T10:42:35.195Z,70.31
2019-04-04T10:45:05.386Z,72.29
2019-04-04T10:47:34.065Z,70.69
2019-04-04T10:50:03.187Z,69.21
2019-04-04T10:52:32.243Z,69.52
2019-04-04T10:55:01.710Z,68.64
2019-04-04T10:57:30.501Z,68.02
2019-04-04T10:59:59.166Z,67.91
2019-04-04T11:02:27.822Z,68.33
2019-04-04T11:04:56.504Z,67.86
2019-04-04T11:07:25.166Z,68.71
2019-04-04T11:09:53.859Z,68.91
2019-04-04T11:12:22.521Z,68.21
2019-04-04T11:14:51.183Z,68.29
2019-04-04T11:17:19.861Z,68.92
2019-04-04T11:19:48.529Z,68.25
2019-04-04T11:22:17.219Z,68.60
2019-04-04T11:24:45.881Z,68.80
2019-04-04T11:27:17.334Z,69.65
2019-04-04T11:29:45.044Z,70.21
2019-04-04T11:32:13.741Z,71.07
2019-04-04T11:34:52.698Z,71.05
2019-04-04T11:37:12.797Z,71.69
2019-04-04T11:39:53.672Z,70.54
2019-04-04T11:42:12.015Z,71.13
2019-04-04T11:44:40.679Z,70.23
2019-04-04T11:47:09.354Z,70.09
2019-04-04T11:49:38.050Z,70.11
2019-04-04T11:52:06.806Z,70.16
2019-04-04T11:54:55.437Z,70.15
2019-04-04T11:57:24.156Z,70.02
2019-04-04T11:59:52.858Z,70.24
2019-04-04T12:02:21.642Z,70.30
2019-04-04T12:04:50.311Z,69.95
2019-04-04T12:07:18.983Z,71.02
2019-04-04T12:09:47.644Z,71.52
2019-04-04T12:12:16.318Z,71.53
2019-04-04T12:14:44.985Z,70.06
2019-04-04T12:17:13.663Z,70.32
2019-04-04T12:19:42.329Z,70.32
2019-04-04T12:22:11.948Z,70.84
2019-04-04T12:24:40.756Z,71.12
2019-04-04T12:27:09.419Z,72.51
2019-04-04T12:29:38.113Z,73.22
2019-04-04T12:32:06.867Z,73.61
2019-04-04T12:34:35.525Z,73.28
2019-04-04T12:37:04.199Z,72.51
2019-04-04T12:39:32.866Z,72.61
2019-04-04T12:42:01.544Z,72.24
2019-04-04T12:44:30.238Z,72.84
2019-04-04T12:46:58.917Z,72.30
2019-04-04T12:49:27.616Z,71.87
2019-04-04T12:51:56.285Z,72.06
2019-04-04T12:54:24.991Z,71.95
2019-04-04T12:56:53.644Z,71.24
2019-04-04T12:59:22.336Z,71.36
2019-04-04T13:01:50.999Z,70.28
2019-04-04T13:04:30.678Z,69.32
2019-04-04T13:06:50.072Z,69.53
2019-04-04T13:09:18.732Z,70.97
2019-04-04T13:11:47.419Z,71.63
2019-04-04T13:14:16.085Z,72.64
2019-04-04T13:16:44.737Z,71.65
2019-04-04T13:19:13.443Z,72.24
2019-04-04T13:21:42.105Z,74.04
2019-04-04T13:24:10.765Z,74.22
2019-04-04T13:26:39.459Z,73.79
2019-04-04T13:29:08.137Z,74.54
2019-04-04T13:31:36.874Z,75.15
2019-04-04T13:34:05.563Z,75.59
2019-04-04T13:36:36.596Z,76.27
2019-04-04T13:39:08.878Z,76.65
2019-04-04T13:41:37.572Z,76.34
2019-04-04T13:44:06.382Z,77.34
2019-04-04T13:46:35.135Z,77.52
2019-04-04T13:49:03.860Z,77.02
2019-04-04T13:51:32.543Z,77.25
2019-04-04T13:54:01.279Z,77.74
2019-04-04T13:56:29.938Z,77.12
2019-04-04T13:59:00.946Z,77.31
2019-04-04T14:01:29.016Z,77.22
2019-04-04T14:03:57.673Z,77.35
2019-04-04T14:06:26.465Z,76.90
2019-04-04T14:08:55.119Z,76.87
2019-04-04T14:11:23.805Z,77.05
2019-04-04T14:13:52.463Z,76.62
2019-04-04T14:16:21.116Z,76.12
2019-04-04T14:18:49.808Z,76.67
2019-04-04T14:21:18.466Z,76.53
2019-04-04T14:23:47.118Z,77.46
2019-04-04T14:26:15.807Z,77.44
2019-04-04T14:28:44.474Z,77.24
2019-04-04T14:31:13.163Z,76.87
2019-04-04T14:33:41.841Z,77.90
2019-04-04T14:36:10.607Z,78.16
2019-04-04T14:38:39.297Z,78.06
2019-04-04T14:41:11.553Z,78.94
2019-04-04T14:43:38.425Z,78.90
2019-04-04T14:46:07.083Z,79.02
2019-04-04T14:48:35.768Z,79.14
2019-04-04T14:51:04.504Z,79.37
2019-04-04T14:53:33.192Z,78.57
2019-04-04T14:56:01.858Z,78.64
2019-04-04T14:58:30.956Z,79.22
2019-04-04T15:00:59.965Z,78.39
2019-04-04T15:03:28.641Z,77.06
2019-04-04T15:05:57.325Z,77.83
2019-04-04T15:08:26.013Z,78.43
2019-04-04T15:10:54.676Z,78.66
2019-04-04T15:13:23.352Z,78.43
2019-04-04T15:16:11.035Z,77.96
2019-04-04T15:18:39.713Z,77.99
2019-04-04T15:21:08.543Z,79.13
2019-04-04T15:23:38.068Z,79.56
2019-04-04T15:26:09.640Z,79.98
2019-04-04T15:28:37.304Z,80.82
2019-04-04T15:31:06.708Z,80.81
2019-04-04T15:33:35.433Z,81.12
2019-04-04T15:36:04.343Z,80.50
2019-04-04T15:38:33.006Z,80.38
2019-04-04T15:41:01.712Z,80.17
2019-04-04T15:43:30.469Z,80.87
2019-04-04T15:45:59.274Z,81.33
2019-04-04T15:48:27.968Z,80.83
2019-04-04T15:50:56.628Z,81.15
2019-04-04T15:53:25.359Z,81.18
2019-04-04T15:55:54.048Z,81.12
2019-04-04T15:58:22.723Z,81.28
2019-04-04T16:00:51.400Z,81.03
2019-04-04T16:03:20.088Z,80.87
2019-04-04T16:05:48.839Z,80.87
2019-04-04T16:08:17.481Z,80.65
2019-04-04T16:10:46.234Z,80.34
2019-04-04T16:13:14.915Z,81.01
2019-04-04T16:15:43.607Z,80.96
2019-04-04T16:18:12.531Z,81.14
2019-04-04T16:20:41.183Z,81.09
2019-04-04T16:23:09.847Z,81.21
2019-04-04T16:25:38.615Z,81.96
2019-04-04T16:28:07.370Z,81.87
2019-04-04T16:30:38.346Z,81.84
2019-04-04T16:33:07.023Z,81.78
2019-04-04T16:35:35.679Z,82.19
2019-04-04T16:38:04.352Z,82.16
2019-04-04T16:40:33.179Z,82.14
2019-04-04T16:43:02.493Z,81.67
2019-04-04T16:45:31.360Z,81.71
2019-04-04T16:48:00.013Z,81.67
2019-04-04T16:50:28.667Z,81.83
2019-04-04T16:52:57.356Z,81.65
2019-04-04T16:55:26.108Z,81.63
2019-04-04T16:57:54.988Z,81.68
2019-04-04T17:00:24.520Z,81.61
2019-04-04T17:02:53.173Z,81.46
2019-04-04T17:05:21.940Z,81.87
2019-04-04T17:07:50.628Z,81.53
2019-04-04T17:10:19.740Z,81.65
2019-04-04T17:12:48.403Z,81.48
2019-04-04T17:15:17.250Z,81.47
2019-04-04T17:17:45.909Z,81.99
2019-04-04T17:20:15.516Z,82.25
2019-04-04T17:22:44.208Z,82.74
2019-04-04T17:25:14.833Z,83.29
2019-04-04T17:27:43.329Z,83.34
2019-04-04T17:30:12.851Z,83.61
2019-04-04T17:32:42.182Z,83.78
2019-04-04T17:35:11.135Z,84.13
2019-04-04T17:37:40.177Z,84.08
2019-04-04T17:40:09.439Z,84.34
2019-04-04T17:42:38.548Z,84.27
2019-04-04T17:45:09.383Z,84.67
2019-04-04T17:47:38.603Z,84.96
2019-04-04T17:50:08.519Z,85.08
2019-04-04T17:52:37.254Z,85.25
2019-04-04T17:55:07.640Z,85.28
2019-04-04T17:57:36.377Z,85.61
2019-04-04T18:00:07.452Z,86.04
2019-04-04T18:02:36.608Z,86.63
2019-04-04T18:05:06.043Z,86.50
2019-04-04T18:07:34.705Z,86.73
2019-04-04T18:10:03.439Z,86.95
2019-04-04T18:12:40.243Z,87.04
2019-04-04T18:15:02.565Z,87.05
2019-04-04T18:17:31.259Z,86.90
2019-04-04T18:19:59.917Z,86.96
2019-04-04T18:22:28.589Z,86.81
2019-04-04T18:24:57.749Z,86.80
2019-04-04T18:27:26.468Z,86.82
2019-04-04T18:29:55.176Z,86.79
2019-04-04T18:32:23.863Z,86.77
2019-04-04T18:34:52.536Z,86.89
2019-04-04T18:37:21.210Z,87.07
2019-04-04T18:39:49.890Z,87.71
2019-04-04T18:42:18.577Z,88.11
2019-04-04T18:44:47.236Z,88.23
2019-04-04T18:47:15.963Z,88.42
2019-04-04T18:49:44.641Z,88.67
2019-04-04T18:52:13.333Z,88.77
2019-04-04T18:54:41.980Z,88.93
2019-04-04T18:57:13.074Z,88.90
2019-04-04T18:59:41.048Z,89.01
2019-04-04T19:02:10.067Z,89.05
2019-04-04T19:04:38.726Z,88.90
2019-04-04T19:07:07.402Z,89.15
2019-04-04T19:09:36.063Z,89.12
2019-04-04T19:12:04.817Z,89.01
2019-04-04T19:14:33.566Z,89.08
2019-04-04T19:17:02.336Z,89.15
2019-04-04T19:19:30.987Z,89.23
2019-04-04T19:21:59.726Z,89.11
2019-04-04T19:24:28.412Z,89.21
2019-04-04T19:26:57.188Z,89.18
2019-04-04T19:29:25.936Z,89.48
2019-04-04T19:31:54.618Z,89.44
2019-04-04T19:34:23.310Z,89.38
2019-04-04T19:36:52.166Z,89.43
2019-04-04T19:39:20.819Z,89.43
2019-04-04T19:41:49.509Z,89.35
2019-04-04T19:44:18.182Z,89.12
2019-04-04T19:46:46.870Z,89.17
2019-04-04T19:49:15.514Z,88.92
2019-04-04T19:51:44.172Z,88.90
2019-04-04T19:54:12.856Z,89.05
2019-04-04T19:56:41.518Z,88.97
2019-04-04T19:59:10.186Z,88.92
2019-04-04T20:01:38.864Z,88.81
2019-04-04T20:04:07.526Z,88.79
2019-04-04T20:06:36.213Z,88.53
2019-04-04T20:09:07.247Z,88.58
2019-04-04T20:11:36.108Z,88.13
2019-04-04T20:14:05.035Z,87.92
2019-04-04T20:16:33.729Z,87.96
2019-04-04T20:19:02.456Z,87.95
2019-04-04T20:21:31.113Z,88.04
2019-04-04T20:23:59.795Z,88.48
2019-04-04T20:26:28.457Z,88.97
2019-04-04T20:28:57.149Z,89.35
2019-04-04T20:31:25.810Z,89.73
2019-04-04T20:34:01.639Z,89.86
2019-04-04T20:36:24.903Z,89.98
2019-04-04T20:38:54.003Z,90.31
2019-04-04T20:41:22.663Z,90.40
2019-04-04T20:43:51.352Z,90.44
2019-04-04T20:46:20.025Z,90.41
2019-04-04T20:48:48.774Z,90.71
2019-04-04T20:51:17.740Z,90.65
2019-04-04T20:53:46.623Z,90.68
2019-04-04T20:56:15.462Z,90.65
2019-04-04T20:58:44.091Z,90.92
2019-04-04T21:01:12.751Z,90.87
2019-04-04T21:03:41.427Z,90.89
2019-04-04T21:06:10.078Z,91.12
2019-04-04T21:08:38.752Z,91.20
2019-04-04T21:11:07.423Z,91.23
2019-04-04T21:13:36.097Z,91.35
2019-04-04T21:16:04.845Z,91.37
2019-04-04T21:18:33.513Z,91.37
2019-04-04T21:21:02.196Z,91.58
2019-04-04T21:23:30.848Z,91.70
2019-04-04T21:25:59.506Z,91.86
2019-04-04T21:28:28.191Z,91.90
2019-04-04T21:30:56.854Z,91.92
2019-04-04T21:33:25.512Z,92.03
2019-04-04T21:35:54.191Z,92.21
2019-04-04T21:38:22.894Z,92.12
2019-04-04T21:40:51.547Z,92.31
2019-04-04T21:43:20.205Z,92.41
2019-04-04T21:45:48.873Z,92.37
2019-04-04T21:48:17.532Z,92.60
2019-04-04T21:50:46.228Z,92.73
2019-04-04T21:53:14.890Z,92.63
2019-04-04T21:55:43.543Z,92.61
2019-04-04T21:58:12.223Z,92.85
2019-04-04T22:00:43.660Z,92.98
2019-04-04T22:03:12.411Z,92.76
2019-04-04T22:05:41.064Z,92.96
2019-04-04T22:08:09.821Z,93.03
2019-04-04T22:10:38.477Z,93.07
2019-04-04T22:13:07.214Z,93.09
2019-04-04T22:15:35.970Z,93.06
2019-04-04T22:18:04.715Z,93.00
2019-04-04T22:20:33.373Z,92.97
2019-04-04T22:23:02.054Z,92.88
2019-04-04T22:25:30.778Z,92.74
2019-04-04T22:27:59.509Z,92.76
2019-04-04T22:30:28.215Z,92.93
2019-04-04T22:32:56.851Z,92.73
2019-04-04T22:35:25.506Z,92.87
2019-04-04T22:37:54.261Z,93.01
2019-04-04T22:40:22.977Z,92.99
2019-04-04T22:42:51.634Z,92.84
2019-04-04T22:45:20.289Z,93.02
2019-04-04T22:47:49.056Z,93.03
2019-04-04T22:50:17.735Z,92.87
2019-04-04T22:52:46.393Z,93.06
2019-04-04T22:55:15.155Z,93.13
2019-04-04T22:57:43.888Z,93.10
2019-04-04T23:00:14.165Z,93.15
2019-04-04T23:02:42.868Z,93.15
2019-04-04T23:05:11.663Z,93.24
2019-04-04T23:07:40.319Z,93.27
2019-04-04T23:10:10.438Z,93.18
2019-04-04T23:12:39.203Z,93.26
2019-04-04T23:15:08.741Z,93.37
2019-04-04T23:17:37.494Z,93.48
2019-04-04T23:20:07.829Z,93.37
2019-04-04T23:22:36.484Z,93.41
2019-04-04T23:25:05.992Z,93.43
2019-04-04T23:27:34.662Z,93.34
2019-04-04T23:30:03.764Z,93.56
2019-04-04T23:32:32.419Z,93.40
2019-04-04T23:35:01.110Z,93.50
2019-04-04T23:37:29.780Z,93.60
2019-04-04T23:39:58.511Z,93.72
2019-04-04T23:42:27.499Z,93.68
2019-04-04T23:45:01.221Z,93.61
2019-04-04T23:47:26.541Z,93.58
2019-04-04T23:49:55.223Z,93.56
2019-04-04T23:52:23.876Z,93.51
2019-04-04T23:54:52.528Z,93.53
2019-04-04T23:57:21.212Z,93.42
2019-04-04T23:59:49.866Z,93.38
